Time;durP1;ratioP1;P1;durP2;ratioP2;P2;SDS_P1;SDS_P2;PMS_P1;PMS_P2;Temp;Humidity;BMP_temperature;BMP_pressure;BME280_temperature;BME280_humidity;BME280_pressure;Samples;Min_cycle;Max_cycle;Signal;HPM_P1;HPM_P2
2022/12/20 00:00:51;;;;;;;;;;;;;;;2.98;57.03;100863.84;4508922;31;34385;-84
2022/12/20 00:03:19;;;;;;;;;;;;;;;3.37;55.80;100861.50;4506428;31;35446;-82
2022/12/20 00:05:47;;;;;;;;;;;;;;;3.85;54.45;100868.13;4507289;31;33721;-84
2022/12/20 00:08:16;;;;;;;;;;;;;;;2.95;56.18;100873.88;4492443;31;33759;-82
2022/12/20 00:10:45;;;;;;;;;;;;;;;3.70;54.90;100886.75;4500829;31;34890;-84
2022/12/20 00:13:12;;;;;;;;;;;;;;;3.00;56.32;100887.91;4491709;31;34411;-84
2022/12/20 00:15:40;;;;;;;;;;;;;;;3.40;55.56;100892.44;4491976;31;34246;-83
2022/12/20 00:18:07;;;;;;;;;;;;;;;3.19;56.17;100888.41;4502910;31;33821;-82
2022/12/20 00:20:34;;;;;;;;;;;;;;;3.21;56.06;100889.41;4513713;31;34072;-82
2022/12/20 00:23:02;;;;;;;;;;;;;;;3.05;56.39;100886.56;4512837;31;34486;-84
2022/12/20 00:25:29;;;;;;;;;;;;;;;3.43;55.57;100896.91;4514328;31;34944;-84
2022/12/20 00:27:56;;;;;;;;;;;;;;;3.97;53.86;100887.69;4494849;31;32770;-83
2022/12/20 00:30:23;;;;;;;;;;;;;;;2.72;56.77;100885.94;4511147;31;34264;-83
2022/12/20 00:32:51;;;;;;;;;;;;;;;3.68;54.94;100868.69;4508156;31;34092;-83
2022/12/20 00:35:18;;;;;;;;;;;;;;;2.67;57.40;100871.94;4512346;31;34265;-84
2022/12/20 00:37:45;;;;;;;;;;;;;;;3.20;56.40;100862.00;4515814;31;33243;-84
2022/12/20 00:40:13;;;;;;;;;;;;;;;3.96;54.45;100865.41;4527983;31;35122;-83
2022/12/20 00:42:40;;;;;;;;;;;;;;;4.28;53.11;100857.22;4499824;31;34299;-81
2022/12/20 00:45:07;;;;;;;;;;;;;;;3.11;56.82;100866.50;4505414;31;34301;-82
2022/12/20 00:47:35;;;;;;;;;;;;;;;3.23;56.38;100859.66;4505517;31;34223;-83
2022/12/20 00:50:02;;;;;;;;;;;;;;;3.18;56.54;100855.84;4484855;31;790132;-81
2022/12/20 00:52:29;;;;;;;;;;;;;;;3.15;56.55;100853.13;4494804;31;32803;-82
2022/12/20 00:54:57;;;;;;;;;;;;;;;3.57;55.38;100851.69;4509775;31;33931;-82
2022/12/20 00:57:24;;;;;;;;;;;;;;;2.99;56.49;100840.87;4507504;31;34071;-83
2022/12/20 00:59:52;;;;;;;;;;;;;;;3.02;56.52;100829.97;4500421;31;34029;-84
2022/12/20 01:02:19;;;;;;;;;;;;;;;3.60;54.93;100832.28;4501895;31;34363;-82
2022/12/20 01:04:47;;;;;;;;;;;;;;;2.89;56.90;100834.25;4509100;31;34448;-81
2022/12/20 01:07:15;;;;;;;;;;;;;;;2.69;57.34;100844.78;4490126;31;33719;-80
2022/12/20 01:09:42;;;;;;;;;;;;;;;2.36;58.22;100833.00;4506417;31;33975;-83
2022/12/20 01:12:10;;;;;;;;;;;;;;;3.12;56.28;100837.53;4499771;31;35553;-82
2022/12/20 01:14:38;;;;;;;;;;;;;;;3.55;55.13;100831.06;4498239;31;33951;-84
2022/12/20 01:17:05;;;;;;;;;;;;;;;2.65;56.97;100832.50;4512043;31;33281;-83
2022/12/20 01:19:33;;;;;;;;;;;;;;;2.43;57.98;100836.13;4501487;31;34073;-83
2022/12/20 01:22:00;;;;;;;;;;;;;;;2.65;57.72;100832.50;4499477;31;34271;-83
2022/12/20 01:24:28;;;;;;;;;;;;;;;2.82;57.31;100836.28;4506940;31;33997;-84
2022/12/20 01:26:55;;;;;;;;;;;;;;;2.09;59.08;100850.69;4515518;31;33485;-83
2022/12/20 01:29:22;;;;;;;;;;;;;;;3.20;56.05;100843.16;4500575;31;34862;-83
2022/12/20 01:31:50;;;;;;;;;;;;;;;3.36;55.00;100834.06;4498699;31;33701;-83
2022/12/20 01:34:17;;;;;;;;;;;;;;;2.48;56.94;100825.31;4503074;31;34796;-83
2022/12/20 01:36:44;;;;;;;;;;;;;;;1.77;59.38;100827.84;4498488;31;33794;-81
2022/12/20 01:39:13;;;;;;;;;;;;;;;1.86;59.85;100815.75;4507142;31;33905;-84
2022/12/20 01:41:41;;;;;;;;;;;;;;;2.46;58.27;100807.28;4514592;31;33854;-83
2022/12/20 01:44:17;;;;;;;;;;;;;;;2.47;57.89;100801.41;4514854;31;34245;-82
2022/12/20 01:46:45;;;;;;;;;;;;;;;2.78;57.23;100798.44;4499598;31;33771;-83
2022/12/20 01:49:13;;;;;;;;;;;;;;;2.58;57.21;100785.13;4500621;31;34163;-83
2022/12/20 01:51:46;;;;;;;;;;;;;;;2.86;56.40;100792.16;4487800;31;33861;-84
2022/12/20 01:54:14;;;;;;;;;;;;;;;2.14;58.29;100789.63;4499774;31;34175;-83
2022/12/20 01:56:42;;;;;;;;;;;;;;;1.65;59.45;100788.59;4494412;31;33716;-80
2022/12/20 01:59:09;;;;;;;;;;;;;;;2.89;56.77;100777.91;4500006;31;33520;-80
2022/12/20 02:01:36;;;;;;;;;;;;;;;2.52;57.42;100765.87;4500755;31;33979;-82
2022/12/20 02:04:04;;;;;;;;;;;;;;;2.67;56.93;100770.38;4514849;31;33559;-82
2022/12/20 02:06:31;;;;;;;;;;;;;;;2.15;58.75;100761.59;4515507;31;32804;-82
2022/12/20 02:08:59;;;;;;;;;;;;;;;3.41;55.06;100755.81;4514707;31;34111;-82
2022/12/20 02:11:46;;;;;;;;;;;;;;;3.25;55.14;100747.84;4515103;31;35260;-81
2022/12/20 02:14:32;;;;;;;;;;;;;;;2.53;57.04;100750.59;4507843;31;34471;-81
2022/12/20 02:17:00;;;;;;;;;;;;;;;2.17;58.32;100754.03;4514628;31;33372;-84
2022/12/20 02:19:27;;;;;;;;;;;;;;;3.41;54.89;100735.28;4515079;31;34222;-84
2022/12/20 02:21:59;;;;;;;;;;;;;;;4.19;52.53;100734.31;4514579;31;34017;-83
2022/12/20 02:24:34;;;;;;;;;;;;;;;3.72;53.58;100739.88;4500646;31;34831;-84
2022/12/20 02:27:21;;;;;;;;;;;;;;;4.28;51.65;100741.69;4495777;31;34105;-83
2022/12/20 02:30:05;;;;;;;;;;;;;;;4.42;51.25;100745.16;4504418;31;34311;-84
2022/12/20 02:32:35;;;;;;;;;;;;;;;4.12;52.29;100744.97;4487869;31;35004;-83
2022/12/20 02:35:04;;;;;;;;;;;;;;;4.67;50.47;100752.69;4502138;31;33927;-83
2022/12/20 02:37:31;;;;;;;;;;;;;;;3.85;52.67;100751.81;4491685;31;33499;-84
2022/12/20 02:39:58;;;;;;;;;;;;;;;4.05;52.27;100728.31;4511496;31;34915;-84
2022/12/20 02:42:26;;;;;;;;;;;;;;;3.84;51.85;100727.81;4484098;31;32833;-83
2022/12/20 02:47:44;;;;;;;;;;;;;;;3.42;53.86;100737.06;4514390;31;33596;-84
2022/12/20 02:50:11;;;;;;;;;;;;;;;2.95;54.75;100741.53;4514654;31;34106;-84
2022/12/20 02:52:38;;;;;;;;;;;;;;;3.02;54.81;100732.59;4487062;31;32407;-84
2022/12/20 02:55:09;;;;;;;;;;;;;;;3.39;54.35;100730.84;4506853;31;34242;-85
2022/12/20 02:57:50;;;;;;;;;;;;;;;3.75;53.26;100734.03;4508801;31;33449;-84
2022/12/20 03:00:26;;;;;;;;;;;;;;;3.51;54.18;100717.94;4499805;31;34215;-83
2022/12/20 03:05:43;;;;;;;;;;;;;;;1.85;58.33;100718.47;4501420;31;34973;-83
2022/12/20 03:08:10;;;;;;;;;;;;;;;1.39;59.90;100710.00;4500488;31;33065;-82
2022/12/20 03:10:38;;;;;;;;;;;;;;;2.15;57.95;100709.53;4513952;31;33922;-84
2022/12/20 03:13:05;;;;;;;;;;;;;;;2.50;57.62;100713.66;4514048;31;35834;-82
2022/12/20 03:15:34;;;;;;;;;;;;;;;2.71;56.60;100715.16;4503227;31;34103;-81
2022/12/20 03:18:01;;;;;;;;;;;;;;;2.52;57.41;100727.47;4498884;31;33013;-84
2022/12/20 03:20:29;;;;;;;;;;;;;;;2.76;56.61;100713.78;4484357;31;34629;-84
2022/12/20 03:22:56;;;;;;;;;;;;;;;2.83;56.02;100712.53;4497424;31;34245;-84
2022/12/20 03:25:23;;;;;;;;;;;;;;;3.30;54.92;100712.31;4514330;31;34211;-82
2022/12/20 03:27:51;;;;;;;;;;;;;;;1.93;58.27;100697.78;4500481;31;34170;-84
2022/12/20 03:30:18;;;;;;;;;;;;;;;3.19;55.14;100696.22;4507262;31;34509;-83
2022/12/20 03:32:45;;;;;;;;;;;;;;;4.44;51.92;100707.63;4514487;31;33730;-83
2022/12/20 03:35:13;;;;;;;;;;;;;;;4.22;52.14;100698.56;4513634;31;34340;-82
2022/12/20 03:37:40;;;;;;;;;;;;;;;3.13;53.94;100711.16;4499307;31;33170;-82
2022/12/20 03:40:08;;;;;;;;;;;;;;;4.37;51.60;100699.53;4491770;31;34288;-83
2022/12/20 03:42:36;;;;;;;;;;;;;;;4.49;51.16;100703.66;4500869;31;35170;-82
2022/12/20 03:45:03;;;;;;;;;;;;;;;4.92;49.91;100703.66;4490989;31;34143;-82
2022/12/20 03:47:30;;;;;;;;;;;;;;;4.69;50.22;100712.56;4509006;31;33027;-84
2022/12/20 03:49:58;;;;;;;;;;;;;;;5.21;48.72;100706.28;4492917;31;34288;-83
2022/12/20 03:52:26;;;;;;;;;;;;;;;5.36;48.53;100696.00;4499361;31;32637;-84
2022/12/20 03:54:53;;;;;;;;;;;;;;;5.37;48.46;100700.34;4497764;31;33829;-83
2022/12/20 03:57:20;;;;;;;;;;;;;;;5.53;48.25;100699.53;4500327;31;33417;-81
2022/12/20 03:59:48;;;;;;;;;;;;;;;6.04;46.63;100698.19;4489534;31;34301;-84
2022/12/20 04:02:15;;;;;;;;;;;;;;;5.55;47.51;100687.66;4513476;31;33902;-83
2022/12/20 04:04:43;;;;;;;;;;;;;;;4.89;49.22;100691.53;4513004;31;34380;-84
2022/12/20 04:07:11;;;;;;;;;;;;;;;6.06;46.67;100681.09;4507731;31;34045;-84
2022/12/20 04:09:38;;;;;;;;;;;;;;;5.71;47.05;100677.44;4500039;31;34001;-81
2022/12/20 04:12:06;;;;;;;;;;;;;;;5.47;47.50;100674.37;4513851;31;35223;-83
2022/12/20 04:14:36;;;;;;;;;;;;;;;5.65;47.22;100665.94;4512101;31;34103;-81
2022/12/20 04:17:03;;;;;;;;;;;;;;;4.57;48.99;100664.78;4513034;31;32992;-85
2022/12/20 04:19:31;;;;;;;;;;;;;;;5.98;46.51;100648.91;4510758;31;33938;-84
2022/12/20 04:21:59;;;;;;;;;;;;;;;5.52;46.83;100636.91;4498172;31;34813;-83
2022/12/20 04:24:33;;;;;;;;;;;;;;;5.51;47.55;100642.88;4506305;31;34522;-83
2022/12/20 04:27:01;;;;;;;;;;;;;;;4.21;49.71;100642.91;4499970;31;33209;-83
2022/12/20 04:29:28;;;;;;;;;;;;;;;5.01;48.94;100643.44;4486481;31;34650;-84
2022/12/20 04:31:56;;;;;;;;;;;;;;;5.08;48.67;100629.25;4508091;31;34387;-84
2022/12/20 04:34:24;;;;;;;;;;;;;;;4.36;50.34;100641.28;4515071;31;33974;-83
2022/12/20 04:36:51;;;;;;;;;;;;;;;3.12;53.88;100642.78;4516015;31;33489;-84
2022/12/20 04:39:19;;;;;;;;;;;;;;;3.47;53.36;100641.63;4510683;31;34115;-83
2022/12/20 04:41:50;;;;;;;;;;;;;;;3.24;53.93;100646.13;4500179;31;34012;-84
2022/12/20 04:44:17;;;;;;;;;;;;;;;3.62;53.20;100645.16;4509380;31;33465;-83
2022/12/20 04:46:44;;;;;;;;;;;;;;;4.29;51.56;100640.81;4507717;31;33788;-83
2022/12/20 04:49:12;;;;;;;;;;;;;;;4.92;49.57;100644.56;4515185;31;34292;-84
2022/12/20 04:51:39;;;;;;;;;;;;;;;3.90;52.34;100648.69;4513672;31;34199;-84
2022/12/20 04:54:07;;;;;;;;;;;;;;;4.17;51.92;100646.06;4513027;31;35013;-82
2022/12/20 04:56:35;;;;;;;;;;;;;;;4.32;50.84;100662.44;4505993;31;33454;-83
2022/12/20 04:59:02;;;;;;;;;;;;;;;5.05;49.57;100654.78;4508947;31;34758;-83
2022/12/20 05:01:30;;;;;;;;;;;;;;;5.42;48.24;100652.66;4511173;31;35066;-84
2022/12/20 05:03:58;;;;;;;;;;;;;;;5.26;48.59;100656.00;4503472;31;34467;-84
2022/12/20 05:06:27;;;;;;;;;;;;;;;5.11;48.96;100670.53;4515068;31;34138;-83
2022/12/20 05:08:55;;;;;;;;;;;;;;;5.76;47.30;100660.59;4511810;31;33793;-83
2022/12/20 05:11:22;;;;;;;;;;;;;;;5.39;48.39;100657.63;4514288;31;35471;-83
2022/12/20 05:13:50;;;;;;;;;;;;;;;5.77;47.37;100667.50;4515035;31;34412;-83
2022/12/20 05:16:20;;;;;;;;;;;;;;;6.03;46.73;100670.66;4515517;31;34227;-80
2022/12/20 05:18:48;;;;;;;;;;;;;;;5.93;46.56;100673.53;4501407;31;34132;-84
2022/12/20 05:26:49;;;;;;;;;;;;;;;5.72;46.38;100676.66;4508431;31;33259;-83
2022/12/20 05:29:17;;;;;;;;;;;;;;;5.00;48.64;100676.72;4516490;31;33844;-80
2022/12/20 05:31:44;;;;;;;;;;;;;;;4.49;50.24;100683.97;4511666;31;34330;-81
2022/12/20 05:34:11;;;;;;;;;;;;;;;5.28;48.35;100674.13;4514390;31;33615;-82
2022/12/20 05:36:39;;;;;;;;;;;;;;;5.16;48.47;100679.44;4490104;31;33150;-82
2022/12/20 05:39:07;;;;;;;;;;;;;;;5.40;48.06;100664.53;4513764;31;34752;-83
2022/12/20 05:41:34;;;;;;;;;;;;;;;5.50;47.62;100666.84;4512555;31;34530;-80
2022/12/20 05:44:02;;;;;;;;;;;;;;;4.90;48.77;100675.31;4513420;31;34968;-83
2022/12/20 05:46:31;;;;;;;;;;;;;;;4.63;49.98;100684.84;4502386;31;33390;-81
2022/12/20 05:48:59;;;;;;;;;;;;;;;5.30;48.42;100672.50;4511150;31;34932;-82
2022/12/20 05:51:26;;;;;;;;;;;;;;;5.47;47.88;100658.06;4508380;31;34206;-82
2022/12/20 05:53:54;;;;;;;;;;;;;;;5.79;46.94;100665.00;4507451;31;33956;-82
2022/12/20 05:56:21;;;;;;;;;;;;;;;5.77;46.85;100657.19;4503839;31;33734;-83
2022/12/20 05:58:49;;;;;;;;;;;;;;;5.83;46.77;100660.13;4505806;31;34651;-81
2022/12/20 06:01:17;;;;;;;;;;;;;;;6.11;45.91;100642.75;4508957;31;35108;-83
2022/12/20 06:03:44;;;;;;;;;;;;;;;5.82;46.42;100642.88;4501315;31;35100;-81
2022/12/20 06:06:12;;;;;;;;;;;;;;;6.45;45.02;100640.31;4498599;31;34285;-82
2022/12/20 06:08:42;;;;;;;;;;;;;;;5.67;45.87;100638.59;4499543;31;34812;-83
2022/12/20 06:11:10;;;;;;;;;;;;;;;5.30;47.32;100637.41;4501412;31;33895;-82
2022/12/20 06:13:39;;;;;;;;;;;;;;;5.95;46.01;100628.19;4507875;31;34205;-83
2022/12/20 06:16:07;;;;;;;;;;;;;;;6.33;45.23;100630.25;4530015;31;33219;-83
2022/12/20 06:18:34;;;;;;;;;;;;;;;6.26;45.28;100629.00;4531183;31;33980;-83
2022/12/20 06:21:02;;;;;;;;;;;;;;;5.97;45.83;100626.56;4531260;31;34230;-83
2022/12/20 06:23:30;;;;;;;;;;;;;;;5.71;46.41;100623.41;4531156;31;34734;-83
2022/12/20 06:25:57;;;;;;;;;;;;;;;5.09;47.69;100623.31;4513747;31;34030;-83
2022/12/20 06:28:25;;;;;;;;;;;;;;;4.92;47.79;100622.31;4507728;31;34038;-83
2022/12/20 06:30:53;;;;;;;;;;;;;;;6.07;45.90;100636.56;4515051;31;35211;-81
2022/12/20 06:33:23;;;;;;;;;;;;;;;5.72;46.45;100640.63;4500564;31;34473;-82
2022/12/20 06:35:50;;;;;;;;;;;;;;;5.47;47.02;100624.63;4515041;31;33212;-83
2022/12/20 06:38:19;;;;;;;;;;;;;;;5.26;47.64;100620.00;4515268;31;32708;-84
2022/12/20 06:40:46;;;;;;;;;;;;;;;5.51;46.95;100621.41;4500879;31;34448;-83
2022/12/20 06:43:15;;;;;;;;;;;;;;;5.72;46.87;100629.44;4502499;31;34043;-83
2022/12/20 06:45:42;;;;;;;;;;;;;;;6.43;44.92;100622.16;4498647;31;33977;-83
2022/12/20 06:48:10;;;;;;;;;;;;;;;5.86;45.26;100623.34;4498808;31;34110;-82
2022/12/20 06:50:38;;;;;;;;;;;;;;;4.54;49.26;100627.75;4503706;31;33869;-80
2022/12/20 06:53:05;;;;;;;;;;;;;;;4.68;48.64;100620.88;4502710;31;35059;-82
2022/12/20 06:55:33;;;;;;;;;;;;;;;5.25;47.81;100600.25;4514798;31;33717;-83
2022/12/20 06:58:00;;;;;;;;;;;;;;;4.86;48.20;100602.31;4513781;31;34553;-82
2022/12/20 07:00:28;;;;;;;;;;;;;;;5.85;46.52;100609.59;4499752;31;33700;-82
2022/12/20 07:02:55;;;;;;;;;;;;;;;5.47;47.17;100610.06;4514453;31;33818;-82
2022/12/20 07:05:22;;;;;;;;;;;;;;;4.69;48.84;100602.97;4514634;31;33091;-82
2022/12/20 07:07:49;;;;;;;;;;;;;;;4.25;49.54;100606.34;4514638;31;34137;-83
2022/12/20 07:10:17;;;;;;;;;;;;;;;4.19;50.54;100607.66;4514469;31;35346;-82
2022/12/20 07:12:44;;;;;;;;;;;;;;;4.66;49.72;100605.41;4514616;31;33871;-81
2022/12/20 07:15:14;;;;;;;;;;;;;;;4.84;49.54;100603.00;4513285;31;33357;-82
2022/12/20 07:17:42;;;;;;;;;;;;;;;3.56;52.76;100602.06;4507262;31;34045;-82
2022/12/20 07:20:09;;;;;;;;;;;;;;;4.74;49.80;100600.72;4512267;31;33976;-81
2022/12/20 07:22:40;;;;;;;;;;;;;;;3.83;52.06;100602.94;4505117;31;34275;-83
2022/12/20 07:25:08;;;;;;;;;;;;;;;4.55;50.29;100593.59;4507342;31;33903;-82
2022/12/20 07:27:35;;;;;;;;;;;;;;;4.83;49.42;100602.13;4498428;31;34115;-82
2022/12/20 07:30:03;;;;;;;;;;;;;;;5.64;47.71;100608.41;4499152;31;35032;-82
2022/12/20 07:32:31;;;;;;;;;;;;;;;4.71;49.39;100616.81;4484972;31;34178;-83
2022/12/20 07:34:58;;;;;;;;;;;;;;;4.03;50.93;100619.53;4499151;31;34027;-83
2022/12/20 07:37:27;;;;;;;;;;;;;;;3.88;52.20;100627.19;4499844;31;33880;-80
2022/12/20 07:39:54;;;;;;;;;;;;;;;4.21;50.71;100632.63;4502098;31;34290;-82
2022/12/20 07:42:22;;;;;;;;;;;;;;;4.49;50.29;100631.75;4498146;31;34149;-82
2022/12/20 07:44:49;;;;;;;;;;;;;;;3.02;54.40;100619.87;4503319;31;33277;-82
2022/12/20 07:47:17;;;;;;;;;;;;;;;3.49;52.97;100619.53;4513907;31;35040;-82
2022/12/20 07:49:44;;;;;;;;;;;;;;;2.77;54.42;100625.94;4514123;31;34352;-85
2022/12/20 07:52:11;;;;;;;;;;;;;;;3.76;52.73;100618.72;4506559;31;34235;-82
2022/12/20 07:54:46;;;;;;;;;;;;;;;3.61;52.76;100612.63;4519971;31;33086;-81
2022/12/20 07:57:14;;;;;;;;;;;;;;;3.66;52.50;100598.41;4490867;31;33769;-81
2022/12/20 07:59:43;;;;;;;;;;;;;;;3.62;53.11;100596.44;4487932;31;33945;-80
2022/12/20 08:02:19;;;;;;;;;;;;;;;4.94;49.90;100599.28;4509792;31;34847;-81
2022/12/20 08:04:49;;;;;;;;;;;;;;;3.92;51.23;100604.28;4517741;31;33118;-83
2022/12/20 08:07:16;;;;;;;;;;;;;;;4.31;50.74;100601.56;4517534;31;34302;-82
2022/12/20 08:09:44;;;;;;;;;;;;;;;3.88;52.47;100591.25;4516372;31;34290;-81
2022/12/20 08:12:12;;;;;;;;;;;;;;;3.36;53.25;100581.97;4516411;31;34027;-83
2022/12/20 08:14:39;;;;;;;;;;;;;;;2.54;56.16;100572.28;4515930;31;33226;-83
2022/12/20 08:17:06;;;;;;;;;;;;;;;2.26;56.84;100567.88;4487820;31;34002;-82
2022/12/20 08:19:34;;;;;;;;;;;;;;;2.23;57.31;100580.44;4500393;31;33866;-82
2022/12/20 08:22:01;;;;;;;;;;;;;;;2.49;56.36;100572.00;4503296;31;33714;-83
2022/12/20 08:24:28;;;;;;;;;;;;;;;2.58;56.53;100571.75;4501211;31;33981;-82
2022/12/20 08:26:56;;;;;;;;;;;;;;;2.93;55.29;100569.81;4514075;31;33676;-81
2022/12/20 08:29:23;;;;;;;;;;;;;;;2.93;54.71;100582.63;4513712;31;35241;-82
2022/12/20 08:31:51;;;;;;;;;;;;;;;2.80;55.72;100582.59;4511082;31;35107;-82
2022/12/20 08:34:18;;;;;;;;;;;;;;;2.54;56.24;100578.31;4501293;31;33400;-80
2022/12/20 08:36:46;;;;;;;;;;;;;;;3.76;53.13;100569.97;4521334;31;33729;-81
2022/12/20 08:39:13;;;;;;;;;;;;;;;4.16;51.83;100569.84;4531627;31;34012;-80
2022/12/20 08:41:40;;;;;;;;;;;;;;;3.88;52.81;100581.00;4512883;31;34475;-81
2022/12/20 08:44:09;;;;;;;;;;;;;;;4.64;50.82;100571.00;4499797;31;32672;-81
2022/12/20 08:46:36;;;;;;;;;;;;;;;3.96;51.73;100570.31;4503211;31;34310;-81
2022/12/20 08:49:04;;;;;;;;;;;;;;;3.58;53.16;100576.53;4503883;31;34417;-80
2022/12/20 08:51:31;;;;;;;;;;;;;;;2.97;54.00;100560.66;4503112;31;33608;-82
2022/12/20 08:53:59;;;;;;;;;;;;;;;3.59;53.15;100571.47;4509961;31;33428;-82
2022/12/20 08:56:26;;;;;;;;;;;;;;;3.13;54.35;100563.44;4515593;31;33706;-82
2022/12/20 08:58:53;;;;;;;;;;;;;;;4.50;51.20;100561.59;4515826;31;33529;-82
2022/12/20 09:01:21;;;;;;;;;;;;;;;3.50;53.50;100559.78;4515678;31;34047;-82
2022/12/20 09:03:49;;;;;;;;;;;;;;;3.51;53.78;100556.41;4515780;31;33432;-81
2022/12/20 09:06:18;;;;;;;;;;;;;;;3.67;52.58;100564.25;4513867;31;34001;-82
2022/12/20 09:08:46;;;;;;;;;;;;;;;4.07;51.94;100567.62;4515086;31;33570;-82
2022/12/20 09:11:14;;;;;;;;;;;;;;;3.50;53.24;100570.03;4514125;31;34397;-81
2022/12/20 09:13:43;;;;;;;;;;;;;;;3.38;54.05;100582.97;4515458;31;33260;-82
2022/12/20 09:16:12;;;;;;;;;;;;;;;2.97;54.42;100577.72;4515730;31;34111;-82
2022/12/20 09:18:40;;;;;;;;;;;;;;;3.45;53.69;100581.66;4515815;31;34286;-82
2022/12/20 09:21:07;;;;;;;;;;;;;;;4.19;51.66;100579.41;4515534;31;34321;-82
2022/12/20 09:23:34;;;;;;;;;;;;;;;4.33;51.33;100578.59;4515550;31;34482;-82
2022/12/20 09:26:03;;;;;;;;;;;;;;;3.26;54.11;100585.63;4515536;31;34318;-81
2022/12/20 09:28:30;;;;;;;;;;;;;;;4.24;52.10;100576.31;4515570;31;34736;-83
2022/12/20 09:31:02;;;;;;;;;;;;;;;4.38;51.26;100572.91;4513986;31;34736;-82
2022/12/20 09:33:30;;;;;;;;;;;;;;;3.97;51.93;100564.38;4497537;31;32525;-81
2022/12/20 09:35:57;;;;;;;;;;;;;;;3.84;52.13;100545.69;4515158;31;34339;-82
2022/12/20 09:38:24;;;;;;;;;;;;;;;3.44;53.52;100533.72;4515186;31;34595;-81
2022/12/20 09:40:53;;;;;;;;;;;;;;;2.71;55.75;100543.59;4501097;31;34101;-82
2022/12/20 09:43:20;;;;;;;;;;;;;;;3.21;54.41;100534.84;4501075;31;34256;-82
2022/12/20 09:45:48;;;;;;;;;;;;;;;3.32;54.28;100521.03;4515348;31;34221;-82
2022/12/20 09:48:16;;;;;;;;;;;;;;;3.95;52.34;100519.81;4501011;31;35131;-82
2022/12/20 09:50:59;;;;;;;;;;;;;;;3.93;52.27;100517.12;4501058;31;34090;-82
2022/12/20 09:53:40;;;;;;;;;;;;;;;2.98;54.23;100528.25;4515256;31;33269;-81
2022/12/20 09:56:10;;;;;;;;;;;;;;;3.01;54.74;100521.66;4501036;31;33922;-82
2022/12/20 09:58:44;;;;;;;;;;;;;;;4.28;51.96;100513.22;4515449;31;35042;-82
2022/12/20 10:01:14;;;;;;;;;;;;;;;3.80;52.96;100515.50;4515476;31;34414;-82
2022/12/20 10:03:42;;;;;;;;;;;;;;;3.47;53.59;100522.00;4515565;31;32650;-82
2022/12/20 10:06:19;;;;;;;;;;;;;;;3.84;52.54;100521.72;4514930;31;33883;-82
2022/12/20 10:08:56;;;;;;;;;;;;;;;4.79;50.37;100509.34;4503172;31;34012;-82
2022/12/20 10:11:38;;;;;;;;;;;;;;;4.51;51.14;100506.88;4472137;31;35096;-82
2022/12/20 10:14:25;;;;;;;;;;;;;;;3.40;53.77;100513.03;4499620;31;33560;-81
2022/12/20 10:16:55;;;;;;;;;;;;;;;3.73;52.93;100518.50;4500242;31;33889;-82
2022/12/20 10:19:23;;;;;;;;;;;;;;;3.69;52.71;100497.69;4485965;31;33584;-82
2022/12/20 10:21:55;;;;;;;;;;;;;;;3.58;52.99;100500.47;4499096;31;34216;-82
2022/12/20 10:24:29;;;;;;;;;;;;;;;4.05;52.20;100501.59;4500120;31;33141;-82
2022/12/20 10:26:58;;;;;;;;;;;;;;;4.14;51.93;100499.59;4484973;31;34938;-81
2022/12/20 10:29:25;;;;;;;;;;;;;;;4.64;50.68;100493.94;4485986;31;34489;-81
2022/12/20 10:31:53;;;;;;;;;;;;;;;5.18;49.62;100485.00;4512502;31;33973;-82
2022/12/20 10:34:21;;;;;;;;;;;;;;;3.88;52.12;100482.62;4496515;31;32941;-82
2022/12/20 10:36:49;;;;;;;;;;;;;;;3.68;53.07;100468.59;4489710;31;33357;-82
2022/12/20 10:39:16;;;;;;;;;;;;;;;4.00;51.85;100461.94;4496890;31;33935;-82
2022/12/20 10:41:43;;;;;;;;;;;;;;;4.13;51.79;100464.47;4512441;31;33915;-81
2022/12/20 10:44:16;;;;;;;;;;;;;;;4.25;52.07;100460.03;4515048;31;33717;-82
2022/12/20 10:46:48;;;;;;;;;;;;;;;4.25;52.25;100449.78;4510670;31;33636;-82
2022/12/20 10:49:29;;;;;;;;;;;;;;;4.50;51.03;100446.91;4484383;31;34277;-82
2022/12/20 10:51:59;;;;;;;;;;;;;;;4.90;50.70;100438.91;4499745;31;33905;-82
2022/12/20 10:54:31;;;;;;;;;;;;;;;3.90;52.48;100439.97;4499046;31;33545;-82
2022/12/20 10:56:59;;;;;;;;;;;;;;;4.85;50.72;100445.50;4498898;31;35564;-82
2022/12/20 10:59:31;;;;;;;;;;;;;;;3.88;53.18;100442.47;4484553;31;34095;-82
2022/12/20 11:01:58;;;;;;;;;;;;;;;4.65;51.07;100426.34;4484228;31;34384;-82
2022/12/20 11:04:27;;;;;;;;;;;;;;;3.86;52.66;100427.75;4498756;31;33363;-81
2022/12/20 11:06:55;;;;;;;;;;;;;;;3.73;53.60;100428.72;4484788;31;33692;-82
2022/12/20 11:09:25;;;;;;;;;;;;;;;4.72;50.74;100415.63;4486851;31;34683;-82
2022/12/20 11:11:58;;;;;;;;;;;;;;;4.37;50.87;100399.13;4498737;31;34232;-82
2022/12/20 11:14:26;;;;;;;;;;;;;;;4.42;51.27;100406.19;4498710;31;33424;-82
2022/12/20 11:17:05;;;;;;;;;;;;;;;3.81;52.77;100389.00;4498697;31;34170;-82
2022/12/20 11:19:38;;;;;;;;;;;;;;;4.96;50.38;100381.81;4484297;31;34457;-82
2022/12/20 11:22:24;;;;;;;;;;;;;;;4.78;49.94;100372.31;4498427;31;33944;-82
2022/12/20 11:24:52;;;;;;;;;;;;;;;6.44;46.45;100375.75;4498621;31;34060;-81
2022/12/20 11:27:20;;;;;;;;;;;;;;;6.24;46.91;100385.97;4498198;31;34950;-82
2022/12/20 11:29:47;;;;;;;;;;;;;;;5.69;47.65;100385.72;4498323;31;34121;-82
2022/12/20 11:32:37;;;;;;;;;;;;;;;3.82;52.71;100395.91;4498888;31;34888;-81
2022/12/20 11:35:14;;;;;;;;;;;;;;;5.20;49.46;100387.41;4497328;31;31993;-81
2022/12/20 11:38:02;;;;;;;;;;;;;;;5.79;48.45;100389.66;4500341;31;34902;-82
2022/12/20 11:40:38;;;;;;;;;;;;;;;5.96;47.49;100377.69;4470986;31;34110;-82
2022/12/20 11:43:12;;;;;;;;;;;;;;;5.47;48.73;100378.59;4501074;31;34864;-82
2022/12/20 11:45:39;;;;;;;;;;;;;;;5.82;48.25;100374.38;4500525;31;34135;-82
2022/12/20 11:48:15;;;;;;;;;;;;;;;5.33;49.29;100377.84;4500240;31;34879;-82
2022/12/20 11:51:02;;;;;;;;;;;;;;;4.93;50.02;100376.53;4500350;31;34825;-82
2022/12/20 11:53:33;;;;;;;;;;;;;;;5.83;48.11;100365.84;4485948;31;34740;-82
2022/12/20 11:56:08;;;;;;;;;;;;;;;4.74;50.36;100362.66;4500147;31;33589;-81
2022/12/20 11:58:42;;;;;;;;;;;;;;;4.44;51.44;100363.53;4485950;31;33711;-82
2022/12/20 12:01:12;;;;;;;;;;;;;;;4.66;50.86;100373.31;4500280;31;33924;-82
2022/12/20 12:03:41;;;;;;;;;;;;;;;4.30;51.66;100367.88;4485996;31;34178;-82
2022/12/20 12:06:16;;;;;;;;;;;;;;;5.20;49.82;100359.13;4485823;31;33349;-80
2022/12/20 12:09:03;;;;;;;;;;;;;;;4.63;51.12;100351.81;4497456;31;34325;-82
2022/12/20 12:11:31;;;;;;;;;;;;;;;5.22;49.99;100339.50;4516014;31;34218;-81
2022/12/20 12:14:27;;;;;;;;;;;;;;;5.11;50.29;100341.50;4504299;31;33748;-82
2022/12/20 12:16:56;;;;;;;;;;;;;;;4.58;50.87;100348.09;4490614;31;34195;-81
2022/12/20 12:19:23;;;;;;;;;;;;;;;4.64;50.88;100347.53;4511912;31;34978;-81
2022/12/20 12:22:00;;;;;;;;;;;;;;;4.17;52.56;100342.28;4516179;31;34997;-82
2022/12/20 12:24:30;;;;;;;;;;;;;;;4.59;51.15;100339.59;4500513;31;33942;-82
2022/12/20 12:26:57;;;;;;;;;;;;;;;4.80;50.99;100345.00;4497733;31;33410;-82
2022/12/20 12:29:25;;;;;;;;;;;;;;;5.42;49.24;100327.69;4488314;31;33838;-82
2022/12/20 12:31:54;;;;;;;;;;;;;;;5.18;49.62;100333.31;4485796;31;33964;-82
2022/12/20 12:34:21;;;;;;;;;;;;;;;6.19;47.38;100335.94;4485714;31;34782;-80
2022/12/20 12:36:58;;;;;;;;;;;;;;;5.08;49.43;100331.97;4500812;31;31880;-82
2022/12/20 12:39:25;;;;;;;;;;;;;;;4.91;49.99;100326.72;4499874;31;34225;-82
2022/12/20 12:41:58;;;;;;;;;;;;;;;5.57;48.67;100315.66;4499736;31;34360;-82
2022/12/20 12:44:45;;;;;;;;;;;;;;;6.16;47.03;100311.72;4499085;31;34819;-82
2022/12/20 12:47:32;;;;;;;;;;;;;;;6.30;46.75;100314.16;4485488;31;33748;-82
2022/12/20 12:50:00;;;;;;;;;;;;;;;6.21;47.05;100324.03;4491811;31;33632;-82
2022/12/20 12:52:41;;;;;;;;;;;;;;;6.34;46.29;100313.50;4485238;31;33822;-81
2022/12/20 12:55:27;;;;;;;;;;;;;;;6.92;45.53;100317.91;4485678;31;34151;-82
2022/12/20 12:57:56;;;;;;;;;;;;;;;6.30;46.80;100318.44;4501767;31;33052;-82
2022/12/20 13:00:42;;;;;;;;;;;;;;;5.79;47.79;100328.75;4501052;31;34327;-82
2022/12/20 13:03:14;;;;;;;;;;;;;;;6.44;46.14;100314.84;4499988;31;35374;-81
2022/12/20 13:05:42;;;;;;;;;;;;;;;5.79;47.96;100312.44;4501331;31;34175;-82
2022/12/20 13:08:16;;;;;;;;;;;;;;;6.27;47.27;100303.72;4500881;31;33405;-81
2022/12/20 13:10:44;;;;;;;;;;;;;;;5.99;47.22;100298.94;4492333;31;34998;-80